Time;durP1;ratioP1;P1;durP2;ratioP2;P2;SDS_P1;SDS_P2;PMS_P1;PMS_P2;Temp;Humidity;BMP_temperature;BMP_pressure;BME280_temperature;BME280_humidity;BME280_pressure;Samples;Min_cycle;Max_cycle;Signal;HPM_P1;HPM_P2
2023/01/05 00:01:20;;;;;;;1.10;0.80;;;17.90;42.30;;;;;;5025597;28;20431;-61
2023/01/05 00:03:46;;;;;;;0.87;0.77;;;17.90;42.30;;;;;;5025317;28;20226;-60
2023/01/05 00:06:19;;;;;;;1.03;0.90;;;17.90;42.30;;;;;;5025992;28;20309;-61
2023/01/05 00:08:45;;;;;;;0.90;0.60;;;17.90;42.20;;;;;;5025744;28;20230;-60
2023/01/05 00:22:29;;;;;;;0.90;0.80;;;17.90;42.40;;;;;;5023224;28;20430;-64
2023/01/05 00:24:59;;;;;;;1.07;0.80;;;17.90;42.40;;;;;;5025053;28;20487;-60
2023/01/05 00:27:26;;;;;;;1.07;0.80;;;17.90;42.40;;;;;;5023912;28;20419;-60
2023/01/05 00:29:52;;;;;;;1.30;0.90;;;17.90;42.40;;;;;;5024065;28;20483;-61
2023/01/05 00:32:17;;;;;;;0.80;0.73;;;17.90;42.30;;;;;;5023734;28;21088;-61
2023/01/05 00:34:43;;;;;;;1.40;1.30;;;17.90;42.40;;;;;;5025352;28;20679;-61
2023/01/05 00:37:08;;;;;;;1.00;0.80;;;17.90;42.40;;;;;;5024872;28;20226;-62
2023/01/05 00:39:34;;;;;;;1.00;0.80;;;17.90;42.50;;;;;;5025518;28;20238;-60
2023/01/05 00:41:59;;;;;;;0.80;0.67;;;17.90;42.40;;;;;;5024467;28;20222;-60
2023/01/05 00:44:25;;;;;;;1.03;0.90;;;17.90;42.40;;;;;;5024862;28;20249;-60
2023/01/05 00:46:50;;;;;;;0.90;0.80;;;17.90;42.50;;;;;;5023797;28;20241;-61
2023/01/05 00:49:16;;;;;;;0.97;0.70;;;17.90;42.40;;;;;;5025822;28;20262;-60
2023/01/05 00:51:42;;;;;;;1.23;0.83;;;17.90;42.40;;;;;;5022354;28;20239;-62
2023/01/05 00:54:07;;;;;;;1.10;0.90;;;17.90;42.40;;;;;;5026108;28;20226;-61
2023/01/05 00:56:33;;;;;;;0.97;0.87;;;17.90;42.50;;;;;;5023446;28;20233;-61
2023/01/05 00:58:58;;;;;;;1.50;1.00;;;17.90;42.40;;;;;;5024159;28;20219;-61
2023/01/05 01:01:24;;;;;;;0.90;0.80;;;17.90;42.40;;;;;;5021230;28;20887;-60
2023/01/05 01:03:49;;;;;;;1.20;1.00;;;17.90;42.40;;;;;;5021961;28;20229;-61
2023/01/05 01:06:16;;;;;;;0.70;0.60;;;17.90;42.40;;;;;;5023607;28;20249;-61
2023/01/05 01:08:41;;;;;;;1.10;0.90;;;17.90;42.40;;;;;;5023374;28;20284;-60
2023/01/05 01:11:09;;;;;;;3.30;0.90;;;17.90;42.40;;;;;;5021561;28;20449;-63
2023/01/05 01:13:37;;;;;;;0.90;0.70;;;17.90;42.40;;;;;;5025519;28;20756;-62
2023/01/05 01:16:11;;;;;;;0.70;0.60;;;17.90;42.40;;;;;;5023656;28;20431;-60
2023/01/05 01:18:37;;;;;;;1.00;0.77;;;17.80;42.30;;;;;;5023889;28;20872;-62
2023/01/05 01:21:03;;;;;;;0.97;0.83;;;17.80;42.30;;;;;;5023694;28;20836;-61
2023/01/05 01:23:29;;;;;;;1.00;0.90;;;17.90;42.40;;;;;;5023806;28;20658;-60
2023/01/05 01:25:58;;;;;;;0.90;0.80;;;17.90;42.50;;;;;;5024320;28;20550;-65
2023/01/05 01:28:23;;;;;;;1.03;0.90;;;17.90;42.50;;;;;;5022771;28;20418;-61
2023/01/05 01:30:49;;;;;;;0.80;0.70;;;17.90;42.50;;;;;;5024506;28;20500;-60
2023/01/05 01:33:14;;;;;;;0.90;0.70;;;17.90;42.40;;;;;;5023306;28;20223;-61
2023/01/05 01:35:40;;;;;;;1.23;0.83;;;17.90;42.40;;;;;;5022889;28;20222;-63
2023/01/05 01:38:05;;;;;;;0.80;0.80;;;17.90;42.50;;;;;;5025241;28;20303;-61
2023/01/05 01:40:38;;;;;;;0.90;0.77;;;17.90;42.40;;;;;;5024589;28;20887;-61
2023/01/05 01:43:12;;;;;;;1.30;0.90;;;17.90;42.40;;;;;;5022592;28;20227;-63
2023/01/05 01:45:37;;;;;;;0.97;0.77;;;17.80;42.30;;;;;;5022657;28;20449;-61
2023/01/05 01:48:03;;;;;;;0.80;0.70;;;17.80;42.40;;;;;;5025293;28;20880;-60
2023/01/05 01:50:50;;;;;;;1.00;0.90;;;17.90;42.50;;;;;;5023972;28;20630;-60
2023/01/05 01:53:20;;;;;;;0.70;0.60;;;17.90;42.50;;;;;;5021719;28;20229;-61
2023/01/05 01:55:46;;;;;;;1.13;0.87;;;17.90;42.50;;;;;;5022030;28;20539;-60
2023/01/05 01:58:15;;;;;;;0.90;0.80;;;17.90;42.60;;;;;;5023102;28;20475;-62
2023/01/05 02:00:41;;;;;;;1.00;0.70;;;17.80;42.40;;;;;;5023386;28;20431;-60
2023/01/05 02:03:07;;;;;;;1.20;0.73;;;17.90;42.50;;;;;;5023217;28;20482;-63
2023/01/05 02:05:35;;;;;;;1.30;0.77;;;17.90;42.40;;;;;;5021314;28;20431;-64
2023/01/05 02:08:01;;;;;;;0.90;0.70;;;17.90;42.40;;;;;;5019678;28;20419;-61
2023/01/05 02:10:41;;;;;;;1.20;0.90;;;17.90;42.50;;;;;;5018207;28;20526;-60
2023/01/05 02:13:18;;;;;;;0.90;0.70;;;17.90;42.50;;;;;;5022050;28;20713;-60
2023/01/05 02:15:52;;;;;;;1.47;1.00;;;17.90;42.50;;;;;;5022492;28;20431;-60
2023/01/05 02:18:39;;;;;;;0.93;0.70;;;17.80;42.50;;;;;;5021850;28;20844;-62
2023/01/05 02:21:13;;;;;;;1.27;0.93;;;17.90;42.50;;;;;;5021914;28;20530;-60
2023/01/05 02:24:06;;;;;;;1.20;0.90;;;17.90;42.60;;;;;;5022798;28;20868;-60
2023/01/05 02:26:51;;;;;;;0.80;0.70;;;17.90;42.50;;;;;;5021499;28;20418;-60
2023/01/05 02:29:34;;;;;;;0.93;0.70;;;17.90;42.60;;;;;;5021959;28;20426;-61
2023/01/05 02:32:28;;;;;;;0.97;0.90;;;17.80;42.70;;;;;;5021628;28;20933;-61
2023/01/05 02:35:00;;;;;;;1.03;0.83;;;17.80;42.60;;;;;;5022184;28;20492;-60
2023/01/05 02:37:38;;;;;;;0.80;0.60;;;17.80;42.60;;;;;;5022980;28;20426;-63
2023/01/05 02:40:27;;;;;;;1.03;0.87;;;17.80;42.60;;;;;;5021585;28;20418;-61
2023/01/05 02:42:55;;;;;;;1.00;0.90;;;17.80;42.60;;;;;;5020550;28;20508;-60
2023/01/05 02:45:22;;;;;;;1.07;0.90;;;17.80;42.70;;;;;;5023256;28;20475;-60
2023/01/05 02:47:48;;;;;;;1.30;0.70;;;17.80;43.50;;;;;;5021952;28;20811;-61
2023/01/05 02:50:28;;;;;;;1.10;0.80;;;17.80;42.80;;;;;;5022223;28;20445;-64
2023/01/05 02:53:03;;;;;;;1.20;0.70;;;17.80;42.60;;;;;;5023634;28;20357;-60
2023/01/05 02:55:39;;;;;;;1.00;0.80;;;17.80;42.70;;;;;;5022078;28;20437;-62
2023/01/05 02:58:14;;;;;;;1.00;0.83;;;17.80;42.70;;;;;;5019080;28;20426;-60
2023/01/05 03:00:49;;;;;;;1.30;0.80;;;17.80;42.70;;;;;;5022109;28;20421;-63
2023/01/05 03:03:23;;;;;;;0.90;0.80;;;17.80;42.60;;;;;;5020677;28;21247;-60
2023/01/05 03:05:54;;;;;;;1.00;0.90;;;17.80;42.70;;;;;;5022838;28;20429;-64
2023/01/05 03:08:22;;;;;;;1.10;0.77;;;17.80;42.70;;;;;;5020713;28;21083;-60
2023/01/05 03:14:06;;;;;;;1.37;0.80;;;17.80;42.60;;;;;;5021955;28;20518;-64
2023/01/05 03:16:36;;;;;;;1.37;1.27;;;17.80;42.60;;;;;;5020498;28;20456;-60
2023/01/05 03:35:55;;;;;;;0.90;0.80;;;17.80;42.70;;;;;;5023279;28;20433;-60
2023/01/05 03:38:36;;;;;;;0.70;0.70;;;17.80;42.80;;;;;;5025684;28;20462;-60
2023/01/05 03:41:04;;;;;;;0.97;0.80;;;17.80;42.70;;;;;;5025670;28;20459;-60
2023/01/05 03:43:34;;;;;;;1.10;0.87;;;17.80;42.80;;;;;;5023931;28;20547;-60
2023/01/05 03:45:59;;;;;;;1.27;0.90;;;17.80;42.80;;;;;;5027263;28;20426;-61
2023/01/05 03:48:26;;;;;;;0.93;0.80;;;17.80;42.80;;;;;;5025872;28;20472;-61
2023/01/05 03:50:52;;;;;;;1.03;0.90;;;17.80;42.70;;;;;;5024486;28;20238;-64
2023/01/05 03:53:18;;;;;;;0.93;0.77;;;17.80;42.80;;;;;;5026091;28;20448;-60
2023/01/05 03:55:43;;;;;;;1.10;1.00;;;17.80;42.80;;;;;;5024932;28;20231;-61
2023/01/05 03:58:09;;;;;;;0.80;0.80;;;17.80;42.80;;;;;;5024115;28;20583;-61
2023/01/05 04:00:35;;;;;;;1.00;0.80;;;17.80;42.70;;;;;;5025145;28;20227;-61
2023/01/05 04:03:00;;;;;;;0.97;0.87;;;17.80;42.70;;;;;;5024790;28;20790;-62
2023/01/05 04:05:26;;;;;;;0.83;0.70;;;17.80;42.80;;;;;;5024229;28;20222;-60
2023/01/05 04:07:52;;;;;;;0.80;0.70;;;17.80;42.70;;;;;;5025100;28;20225;-61
2023/01/05 04:10:17;;;;;;;1.00;0.90;;;17.80;42.80;;;;;;5023720;28;20243;-63
2023/01/05 04:12:45;;;;;;;1.00;0.90;;;17.80;42.80;;;;;;5025635;28;20564;-65
2023/01/05 04:15:10;;;;;;;0.90;0.90;;;17.80;42.70;;;;;;5026049;28;20344;-61
2023/01/05 04:17:36;;;;;;;1.20;1.00;;;17.80;42.80;;;;;;5025134;28;20506;-61
2023/01/05 04:20:04;;;;;;;0.90;0.80;;;17.80;42.80;;;;;;5025249;28;20675;-60
2023/01/05 04:22:31;;;;;;;1.00;0.90;;;17.80;42.70;;;;;;5025985;28;20702;-63
2023/01/05 04:24:56;;;;;;;1.20;1.00;;;17.90;42.80;;;;;;5023519;28;20438;-62
2023/01/05 04:27:22;;;;;;;0.93;0.80;;;17.80;42.80;;;;;;5026919;28;20423;-63
2023/01/05 04:29:47;;;;;;;1.00;0.90;;;17.80;42.80;;;;;;5025205;28;20230;-62
2023/01/05 04:32:13;;;;;;;1.47;1.37;;;17.80;42.80;;;;;;5025333;28;20569;-61
2023/01/05 04:34:38;;;;;;;1.00;0.90;;;17.80;42.80;;;;;;5027259;28;20233;-61
2023/01/05 04:37:04;;;;;;;1.00;0.90;;;17.80;42.80;;;;;;5024451;28;20264;-60
2023/01/05 04:39:29;;;;;;;1.20;1.10;;;17.80;42.80;;;;;;5025418;28;20222;-60
2023/01/05 04:41:55;;;;;;;1.10;0.90;;;17.90;42.80;;;;;;5023635;28;20419;-62
2023/01/05 04:44:20;;;;;;;1.00;0.70;;;17.90;42.80;;;;;;5024364;28;20237;-60
2023/01/05 04:46:46;;;;;;;1.00;0.90;;;17.80;42.80;;;;;;5025264;28;20280;-64
2023/01/05 04:49:11;;;;;;;1.00;0.90;;;17.90;42.80;;;;;;5025928;28;20219;-61
2023/01/05 04:51:37;;;;;;;1.07;0.87;;;17.90;42.80;;;;;;5024834;28;20296;-63
2023/01/05 04:54:03;;;;;;;0.87;0.80;;;17.90;42.80;;;;;;5024046;28;20222;-62
2023/01/05 04:56:28;;;;;;;1.30;1.20;;;17.90;42.70;;;;;;5024694;28;20218;-63
2023/01/05 04:58:54;;;;;;;1.20;1.00;;;17.90;42.70;;;;;;5023957;28;20234;-60
2023/01/05 05:01:19;;;;;;;1.37;1.10;;;17.90;42.60;;;;;;5022559;28;20256;-60
2023/01/05 05:03:45;;;;;;;1.17;1.00;;;17.90;42.70;;;;;;5021207;28;20245;-60
2023/01/05 05:06:10;;;;;;;1.27;0.90;;;17.90;42.60;;;;;;5025859;28;20794;-60
2023/01/05 05:08:36;;;;;;;1.30;1.00;;;17.90;42.60;;;;;;5022999;28;20273;-63
2023/01/05 05:11:02;;;;;;;1.20;0.87;;;17.90;42.50;;;;;;5023657;28;20895;-64
2023/01/05 05:13:27;;;;;;;1.03;0.80;;;17.90;42.50;;;;;;5023842;28;20296;-60
2023/01/05 05:15:53;;;;;;;1.60;1.27;;;17.90;42.40;;;;;;5024079;28;20281;-60
2023/01/05 05:18:20;;;;;;;1.00;0.80;;;17.90;42.40;;;;;;5023551;28;20881;-60
2023/01/05 05:20:49;;;;;;;1.10;1.00;;;17.90;42.40;;;;;;5023712;28;20233;-61
2023/01/05 05:23:15;;;;;;;1.27;1.00;;;17.90;42.40;;;;;;5023292;28;20418;-62
2023/01/05 05:25:40;;;;;;;1.10;0.80;;;17.90;42.40;;;;;;5025494;28;20787;-61
2023/01/05 05:28:06;;;;;;;1.50;1.00;;;17.90;42.40;;;;;;5023393;28;20245;-63
2023/01/05 05:30:31;;;;;;;1.10;1.00;;;18.00;42.50;;;;;;5024575;28;20285;-61
2023/01/05 05:32:57;;;;;;;1.23;1.00;;;18.00;42.40;;;;;;5023608;28;20210;-62
2023/01/05 05:35:22;;;;;;;1.00;0.80;;;18.00;42.40;;;;;;5024334;28;20215;-60
2023/01/05 05:37:48;;;;;;;1.20;1.00;;;18.00;42.50;;;;;;5023937;28;20253;-60
2023/01/05 05:40:14;;;;;;;1.10;1.00;;;18.00;42.30;;;;;;5023977;28;20305;-60
2023/01/05 05:42:39;;;;;;;1.37;1.20;;;18.00;42.30;;;;;;5024353;28;20314;-64
2023/01/05 05:45:05;;;;;;;1.30;1.20;;;18.00;42.30;;;;;;5023106;28;20269;-60
2023/01/05 05:47:31;;;;;;;1.10;1.00;;;18.00;42.30;;;;;;5023353;28;20241;-60
2023/01/05 05:49:56;;;;;;;1.10;0.90;;;18.00;42.30;;;;;;5022279;28;20472;-60
2023/01/05 05:52:22;;;;;;;0.87;0.87;;;18.00;42.30;;;;;;5024717;28;20286;-61
2023/01/05 05:54:47;;;;;;;1.20;1.10;;;18.00;42.20;;;;;;5022838;28;20301;-62
2023/01/05 05:57:13;;;;;;;1.17;1.00;;;18.00;42.20;;;;;;5022501;28;20242;-63
2023/01/05 05:59:38;;;;;;;3.87;1.00;;;18.00;42.30;;;;;;5023878;28;20219;-60
2023/01/05 06:02:04;;;;;;;1.30;0.90;;;18.00;42.20;;;;;;5023172;28;20228;-59
2023/01/05 06:04:29;;;;;;;1.20;1.10;;;18.00;42.20;;;;;;5021444;28;20676;-61
2023/01/05 06:06:55;;;;;;;1.60;1.20;;;18.00;42.20;;;;;;5019558;28;20214;-65
2023/01/05 06:09:20;;;;;;;1.00;0.80;;;18.00;42.20;;;;;;5022876;28;20231;-62
2023/01/05 06:11:46;;;;;;;1.43;0.80;;;18.00;42.20;;;;;;5021043;28;20235;-61
2023/01/05 06:14:12;;;;;;;1.47;0.90;;;18.00;42.20;;;;;;5023852;28;20231;-62
2023/01/05 06:16:37;;;;;;;1.10;1.00;;;18.00;42.20;;;;;;5023094;28;20663;-60
2023/01/05 06:19:03;;;;;;;1.50;1.10;;;18.00;42.20;;;;;;5021876;28;20663;-60
2023/01/05 06:21:28;;;;;;;1.30;1.10;;;18.00;42.20;;;;;;5020867;28;20218;-63
2023/01/05 06:23:54;;;;;;;1.30;1.00;;;18.00;42.20;;;;;;5021936;28;20693;-59
2023/01/05 06:26:19;;;;;;;1.00;0.90;;;18.00;42.10;;;;;;5022632;28;20233;-60
2023/01/05 06:28:45;;;;;;;0.80;0.80;;;18.00;42.10;;;;;;5022697;28;20219;-61
2023/01/05 06:31:10;;;;;;;1.00;0.90;;;18.00;42.10;;;;;;5023407;28;20249;-60
2023/01/05 06:33:36;;;;;;;1.30;1.10;;;18.00;42.10;;;;;;5022831;28;20305;-63
2023/01/05 06:36:01;;;;;;;2.13;1.20;;;18.00;42.10;;;;;;5022491;28;20583;-61
2023/01/05 06:38:28;;;;;;;1.73;1.00;;;18.10;42.20;;;;;;5022590;28;20222;-61
2023/01/05 06:40:54;;;;;;;1.10;0.90;;;18.00;42.10;;;;;;5021794;28;20219;-61
2023/01/05 06:43:19;;;;;;;1.13;1.00;;;18.00;42.10;;;;;;5021463;28;20443;-62
2023/01/05 06:45:45;;;;;;;1.00;0.80;;;18.10;42.20;;;;;;5023242;28;20245;-61
2023/01/05 06:48:11;;;;;;;1.93;1.17;;;18.00;42.10;;;;;;5023183;28;20776;-60
2023/01/05 06:50:36;;;;;;;1.20;1.10;;;18.00;42.10;;;;;;5022976;28;20276;-61
2023/01/05 06:53:02;;;;;;;1.10;0.93;;;18.10;42.20;;;;;;5022496;28;20222;-61
2023/01/05 06:55:28;;;;;;;1.10;1.00;;;18.10;42.20;;;;;;5022398;28;20886;-62
2023/01/05 06:57:53;;;;;;;1.03;0.93;;;18.10;42.20;;;;;;5022917;28;20606;-61
2023/01/05 07:00:19;;;;;;;1.60;1.10;;;18.10;42.20;;;;;;5021344;28;20222;-60
2023/01/05 07:02:45;;;;;;;1.30;1.00;;;18.10;42.20;;;;;;5020308;28;20257;-61
2023/01/05 07:05:10;;;;;;;1.43;1.17;;;18.10;42.20;;;;;;5021966;28;20678;-62
2023/01/05 07:07:36;;;;;;;1.17;1.00;;;18.10;42.10;;;;;;5024540;28;20237;-63
2023/01/05 07:10:03;;;;;;;1.13;1.00;;;18.10;42.10;;;;;;5025844;28;20226;-61
2023/01/05 07:12:28;;;;;;;1.10;0.90;;;18.10;42.10;;;;;;5026237;28;20949;-60
2023/01/05 07:14:54;;;;;;;1.10;1.00;;;18.10;42.20;;;;;;5026108;28;20423;-61
2023/01/05 07:17:19;;;;;;;1.57;1.10;;;18.10;42.20;;;;;;5026989;28;20223;-60
2023/01/05 07:19:45;;;;;;;1.33;1.17;;;18.10;42.10;;;;;;5025786;28;20272;-64
2023/01/05 07:22:10;;;;;;;1.13;1.03;;;18.10;42.10;;;;;;5027238;28;20969;-60
2023/01/05 07:24:36;;;;;;;1.03;0.90;;;18.10;42.10;;;;;;5025971;28;20272;-61
2023/01/05 07:27:02;;;;;;;1.27;1.00;;;18.10;42.10;;;;;;5026840;28;20344;-60
2023/01/05 07:29:28;;;;;;;1.10;1.00;;;18.10;42.10;;;;;;5027035;28;20218;-60
2023/01/05 07:31:53;;;;;;;1.20;1.00;;;18.10;42.10;;;;;;5025332;28;20475;-64
2023/01/05 07:34:20;;;;;;;1.10;1.00;;;18.10;42.10;;;;;;5026151;28;20230;-61
2023/01/05 07:36:46;;;;;;;1.13;1.03;;;18.10;42.90;;;;;;5026003;28;20231;-60
2023/01/05 07:39:11;;;;;;;1.20;1.07;;;18.10;42.10;;;;;;5027021;28;20465;-60
2023/01/05 07:41:37;;;;;;;1.20;1.10;;;18.10;42.10;;;;;;5026579;28;20221;-60
2023/01/05 07:44:03;;;;;;;1.30;1.20;;;18.10;42.10;;;;;;5025273;28;20704;-60
2023/01/05 07:46:29;;;;;;;1.50;1.20;;;18.10;42.10;;;;;;5025066;28;20300;-60
2023/01/05 07:48:54;;;;;;;2.13;1.10;;;18.10;42.10;;;;;;5025802;28;21232;-61
2023/01/05 07:51:21;;;;;;;1.30;1.10;;;18.10;42.10;;;;;;5024265;28;20726;-61
2023/01/05 07:53:46;;;;;;;1.20;1.10;;;18.10;42.10;;;;;;5026560;28;20256;-64
2023/01/05 07:56:12;;;;;;;1.10;1.00;;;18.10;42.10;;;;;;5025685;28;20438;-59
2023/01/05 07:58:38;;;;;;;1.03;0.90;;;18.10;42.20;;;;;;5023363;28;20425;-65
2023/01/05 08:01:05;;;;;;;1.10;1.00;;;18.10;42.10;;;;;;5025972;28;20230;-62
2023/01/05 08:03:31;;;;;;;1.17;0.93;;;18.10;42.10;;;;;;5022082;28;20233;-62
2023/01/05 08:05:57;;;;;;;1.90;1.07;;;18.10;42.10;;;;;;5024424;28;20775;-61
2023/01/05 08:08:23;;;;;;;1.20;1.10;;;18.10;42.10;;;;;;5025048;28;20444;-60
2023/01/05 08:10:48;;;;;;;1.40;1.30;;;18.10;42.10;;;;;;5024494;28;20234;-60
2023/01/05 08:15:59;;;;;;;1.20;1.10;;;18.10;42.10;;;;;;5025595;28;20575;-60
2023/01/05 08:18:25;;;;;;;1.30;1.20;;;18.10;42.10;;;;;;5024944;28;20505;-60
2023/01/05 08:20:57;;;;;;;1.33;1.23;;;18.10;42.20;;;;;;5025430;28;21407;-61
2023/01/05 08:23:24;;;;;;;1.60;1.13;;;18.10;42.20;;;;;;5025130;28;20460;-60
2023/01/05 08:25:50;;;;;;;1.23;1.13;;;18.10;42.10;;;;;;5024834;28;20414;-61
2023/01/05 08:28:15;;;;;;;1.37;1.10;;;18.10;42.20;;;;;;5025357;28;20442;-61
2023/01/05 08:30:41;;;;;;;1.47;1.37;;;18.10;42.10;;;;;;5024551;28;20225;-61
2023/01/05 08:33:06;;;;;;;1.10;1.00;;;18.10;42.10;;;;;;5023904;28;20223;-60
2023/01/05 08:35:32;;;;;;;1.20;1.10;;;18.10;42.20;;;;;;5025161;28;20226;-62
2023/01/05 08:37:58;;;;;;;1.30;1.20;;;18.10;42.20;;;;;;5025115;28;20317;-61
2023/01/05 08:40:26;;;;;;;1.50;1.40;;;18.10;42.20;;;;;;5024123;28;20301;-60
2023/01/05 08:42:51;;;;;;;1.43;1.30;;;18.10;42.20;;;;;;5024606;28;20218;-60
2023/01/05 08:45:17;;;;;;;4.60;1.30;;;18.10;42.20;;;;;;5024495;28;20435;-63
2023/01/05 08:47:43;;;;;;;1.40;1.30;;;18.10;42.10;;;;;;5025232;28;20253;-61
2023/01/05 08:50:09;;;;;;;2.20;1.43;;;18.10;42.20;;;;;;5022763;28;20231;-60
2023/01/05 08:52:36;;;;;;;1.50;1.40;;;18.10;42.20;;;;;;5025115;28;20776;-62
2023/01/05 08:55:02;;;;;;;2.13;1.33;;;18.10;42.20;;;;;;5021591;28;20438;-60
2023/01/05 08:57:29;;;;;;;1.50;1.40;;;18.10;42.20;;;;;;5024520;28;20427;-65
2023/01/05 08:59:54;;;;;;;2.10;1.10;;;18.10;42.20;;;;;;5024855;28;20430;-60
2023/01/05 09:02:20;;;;;;;1.83;1.20;;;18.10;42.20;;;;;;5024084;28;20430;-60
2023/01/05 09:04:45;;;;;;;1.60;1.50;;;18.10;42.20;;;;;;5022457;28;20249;-61
2023/01/05 09:07:11;;;;;;;1.17;1.07;;;18.10;42.20;;;;;;5025200;28;20225;-60
2023/01/05 09:09:37;;;;;;;1.77;1.30;;;18.10;42.20;;;;;;5024691;28;20305;-63
2023/01/05 09:12:03;;;;;;;2.03;1.40;;;18.10;42.20;;;;;;5024477;28;20383;-60
2023/01/05 09:14:28;;;;;;;1.47;1.37;;;18.10;42.20;;;;;;5024039;28;20435;-59
2023/01/05 09:16:54;;;;;;;1.30;1.20;;;18.10;42.20;;;;;;5024217;28;20207;-60
2023/01/05 09:19:19;;;;;;;1.80;1.37;;;18.10;42.30;;;;;;5024316;28;20221;-63
2023/01/05 09:21:45;;;;;;;1.30;1.17;;;18.10;42.20;;;;;;5023552;28;20227;-61
2023/01/05 09:24:13;;;;;;;1.33;1.23;;;18.10;42.20;;;;;;5025140;28;20206;-60
2023/01/05 09:26:42;;;;;;;1.43;1.33;;;18.10;42.30;;;;;;5024054;28;20207;-60
2023/01/05 09:29:09;;;;;;;1.50;1.20;;;18.00;42.10;;;;;;5022332;28;20824;-62
2023/01/05 09:31:35;;;;;;;1.63;1.50;;;18.10;42.30;;;;;;5024371;28;21024;-60
2023/01/05 09:34:00;;;;;;;1.20;1.10;;;18.10;42.30;;;;;;5023899;28;20479;-62
2023/01/05 09:36:26;;;;;;;1.70;1.60;;;18.10;42.30;;;;;;5022051;28;20229;-60
2023/01/05 09:38:53;;;;;;;1.50;1.20;;;18.10;42.30;;;;;;5023950;28;20292;-61
2023/01/05 09:41:27;;;;;;;2.30;1.20;;;18.10;42.30;;;;;;5023086;28;20257;-60
2023/01/05 09:43:58;;;;;;;2.00;1.10;;;18.10;42.30;;;;;;5023121;28;20444;-60
2023/01/05 09:46:35;;;;;;;1.27;1.17;;;18.10;42.40;;;;;;5024058;28;20487;-60
2023/01/05 09:49:05;;;;;;;1.30;1.20;;;18.10;42.30;;;;;;5021998;28;20479;-63
2023/01/05 09:51:32;;;;;;;1.77;1.20;;;18.10;42.40;;;;;;5022667;28;20470;-62
2023/01/05 09:53:59;;;;;;;1.43;1.30;;;18.10;42.30;;;;;;5024180;28;20415;-63
2023/01/05 09:56:35;;;;;;;1.37;1.27;;;18.00;42.30;;;;;;5020732;28;20456;-61
2023/01/05 09:59:17;;;;;;;1.30;1.20;;;18.00;42.30;;;;;;5022299;28;20479;-64
2023/01/05 10:01:45;;;;;;;1.70;1.60;;;18.00;42.30;;;;;;5020018;28;20447;-62
2023/01/05 10:04:18;;;;;;;1.20;1.10;;;18.10;42.50;;;;;;5023153;28;20469;-61
2023/01/05 10:06:48;;;;;;;1.33;1.23;;;18.00;42.30;;;;;;5021902;28;20805;-61
2023/01/05 10:09:20;;;;;;;1.50;1.40;;;18.10;42.50;;;;;;5023469;28;20418;-61
2023/01/05 10:14:54;;;;;;;1.30;1.20;;;18.10;42.40;;;;;;5023796;28;20478;-60
2023/01/05 10:17:22;;;;;;;1.60;1.50;;;18.00;42.30;;;;;;5004418;28;20466;-62
2023/01/05 10:19:49;;;;;;;1.93;1.30;;;18.00;42.40;;;;;;5023351;28;20464;-61
2023/01/05 10:22:31;;;;;;;1.30;1.20;;;18.00;42.40;;;;;;5022876;28;20452;-60
2023/01/05 10:25:35;;;;;;;1.30;1.20;;;18.00;42.40;;;;;;5020608;28;20442;-61
2023/01/05 10:28:01;;;;;;;1.40;1.27;;;18.10;42.50;;;;;;5022533;28;20466;-62
2023/01/05 10:30:40;;;;;;;1.50;1.40;;;18.00;42.50;;;;;;5023308;28;20575;-60
2023/01/05 10:33:38;;;;;;;1.20;1.10;;;18.00;42.40;;;;;;5023433;28;20222;-61
2023/01/05 10:36:07;;;;;;;1.67;1.57;;;18.00;42.50;;;;;;5021629;28;20483;-63
2023/01/05 10:38:47;;;;;;;2.50;1.47;;;18.00;42.40;;;;;;5021676;28;20430;-60
2023/01/05 10:41:35;;;;;;;1.53;1.13;;;18.00;42.40;;;;;;5021662;28;20419;-65
2023/01/05 10:44:31;;;;;;;1.40;1.30;;;18.00;42.50;;;;;;5022100;28;20490;-62
2023/01/05 10:46:57;;;;;;;1.33;1.20;;;18.00;42.40;;;;;;5020705;28;20950;-60
2023/01/05 10:49:29;;;;;;;1.47;1.30;;;18.00;42.50;;;;;;5023079;28;20452;-61
2023/01/05 10:51:59;;;;;;;1.30;1.20;;;18.00;42.50;;;;;;5021179;28;20636;-60
2023/01/05 10:55:00;;;;;;;1.30;1.20;;;18.00;42.40;;;;;;5021615;28;20445;-60
2023/01/05 10:57:29;;;;;;;1.43;1.33;;;18.00;42.40;;;;;;4976386;28;20541;-60
2023/01/05 10:59:59;;;;;;;1.30;1.20;;;18.00;42.50;;;;;;5014596;28;20910;-60
2023/01/05 11:02:28;;;;;;;1.30;1.20;;;18.00;42.50;;;;;;5022185;28;20434;-60
2023/01/05 11:05:08;;;;;;;1.40;1.30;;;18.00;42.50;;;;;;5021909;28;20440;-60
2023/01/05 11:07:47;;;;;;;1.27;1.17;;;18.00;42.50;;;;;;5021470;28;20716;-62
2023/01/05 11:10:24;;;;;;;1.30;1.20;;;18.00;42.50;;;;;;5022535;28;20485;-62
2023/01/05 11:12:54;;;;;;;2.20;1.50;;;18.00;42.50;;;;;;5021507;28;20477;-61
2023/01/05 11:15:20;;;;;;;1.40;1.30;;;18.00;42.50;;;;;;5022178;28;20771;-60
2023/01/05 11:17:46;;;;;;;1.63;1.30;;;18.00;42.50;;;;;;5022384;28;20448;-60
2023/01/05 11:20:16;;;;;;;1.50;1.40;;;18.00;42.50;;;;;;5022357;28;20233;-60
2023/01/05 11:22:43;;;;;;;1.27;1.17;;;18.00;42.60;;;;;;5022143;28;20913;-60
2023/01/05 11:25:18;;;;;;;1.63;1.53;;;18.00;42.50;;;;;;5022438;28;20952;-60
2023/01/05 11:27:44;;;;;;;1.63;1.43;;;18.00;43.20;;;;;;5021737;28;20410;-62
2023/01/05 11:30:15;;;;;;;1.30;1.20;;;18.00;42.50;;;;;;5022641;28;20467;-61
2023/01/05 11:32:42;;;;;;;1.30;1.20;;;18.00;42.50;;;;;;5023591;28;20214;-60
2023/01/05 11:35:29;;;;;;;1.40;1.30;;;18.00;42.50;;;;;;5022361;28;20418;-60
2023/01/05 11:37:56;;;;;;;1.20;1.10;;;18.10;42.60;;;;;;5021084;28;20423;-61
2023/01/05 11:40:25;;;;;;;1.70;1.50;;;18.00;42.60;;;;;;5021842;28;20473;-60
2023/01/05 11:42:51;;;;;;;1.27;1.17;;;18.00;42.50;;;;;;5021431;28;20449;-60
2023/01/05 11:45:23;;;;;;;1.40;1.30;;;18.00;42.70;;;;;;5022660;28;20442;-60
2023/01/05 11:47:56;;;;;;;1.50;1.40;;;18.00;42.50;;;;;;5020451;28;20638;-60
2023/01/05 11:50:29;;;;;;;1.40;1.30;;;18.00;42.60;;;;;;5020869;28;20464;-63
2023/01/05 11:53:01;;;;;;;1.27;1.10;;;18.10;42.70;;;;;;5022452;28;20505;-60
2023/01/05 11:55:31;;;;;;;2.20;1.50;;;18.00;42.60;;;;;;5023398;28;20434;-61
2023/01/05 11:58:29;;;;;;;1.30;1.20;;;18.10;42.70;;;;;;5025558;28;20442;-60
2023/01/05 12:01:24;;;;;;;1.40;1.30;;;18.10;42.60;;;;;;5023241;28;20956;-61
2023/01/05 12:04:01;;;;;;;1.60;1.20;;;18.10;42.70;;;;;;5024670;28;20422;-60
2023/01/05 12:06:49;;;;;;;1.43;1.33;;;18.10;42.60;;;;;;5025347;28;20431;-61
2023/01/05 12:09:22;;;;;;;2.33;1.67;;;18.10;42.70;;;;;;5023726;28;20436;-60
2023/01/05 12:12:09;;;;;;;1.33;1.23;;;18.00;42.60;;;;;;5024111;28;20925;-64
2023/01/05 12:14:53;;;;;;;1.57;1.47;;;18.00;42.60;;;;;;5025274;28;20552;-60
2023/01/05 12:17:42;;;;;;;1.90;1.33;;;18.10;42.70;;;;;;5023441;28;20423;-60
2023/01/05 12:20:37;;;;;;;1.50;1.20;;;18.00;42.60;;;;;;5025365;28;20522;-60
2023/01/05 12:23:21;;;;;;;1.30;1.20;;;18.00;42.50;;;;;;5024038;28;20483;-65
2023/01/05 12:26:19;;;;;;;1.23;1.13;;;18.00;42.60;;;;;;5022871;28;20437;-61
2023/01/05 12:29:20;;;;;;;1.47;1.37;;;18.00;42.60;;;;;;4963842;28;20853;-62
2023/01/05 12:32:12;;;;;;;1.40;1.30;;;18.10;42.60;;;;;;5022770;28;20438;-60
2023/01/05 12:35:15;;;;;;;1.60;1.40;;;18.00;42.60;;;;;;4976809;28;20524;-60
2023/01/05 12:38:05;;;;;;;1.47;1.37;;;18.00;42.50;;;;;;5025907;28;20475;-61
2023/01/05 12:40:54;;;;;;;1.40;1.20;;;18.10;42.70;;;;;;5023704;28;20440;-61
2023/01/05 12:43:44;;;;;;;1.30;1.20;;;18.10;42.70;;;;;;5023047;28;21021;-60
2023/01/05 12:46:25;;;;;;;1.23;1.13;;;18.00;42.60;;;;;;4986156;28;20440;-60
2023/01/05 12:48:54;;;;;;;1.53;1.00;;;18.10;42.70;;;;;;4985298;28;20507;-63
2023/01/05 12:51:45;;;;;;;1.20;1.10;;;18.10;42.80;;;;;;4984961;28;20472;-61
2023/01/05 12:54:37;;;;;;;1.60;1.50;;;18.10;42.70;;;;;;4984091;28;20495;-62
2023/01/05 12:57:10;;;;;;;1.37;1.27;;;18.10;42.70;;;;;;4983968;28;20407;-62
2023/01/05 13:00:00;;;;;;;1.23;1.13;;;18.10;42.70;;;;;;4985000;28;20420;-61
2023/01/05 13:02:36;;;;;;;1.50;1.40;;;18.10;42.70;;;;;;4984623;28;20432;-60
2023/01/05 13:05:38;;;;;;;1.27;1.17;;;18.10;42.80;;;;;;4983750;28;20495;-62
2023/01/05 13:08:32;;;;;;;1.40;1.30;;;18.10;42.70;;;;;;4983279;28;22209;-60
2023/01/05 13:11:24;;;;;;;1.77;1.33;;;18.10;42.70;;;;;;4983873;28;20462;-63
2023/01/05 13:13:57;;;;;;;1.30;1.20;;;18.10;42.70;;;;;;4976722;28;20457;-62
2023/01/05 13:16:30;;;;;;;1.40;1.30;;;18.10;42.70;;;;;;4985440;28;20447;-62
2023/01/05 13:19:08;;;;;;;1.60;1.30;;;18.10;42.80;;;;;;4985567;28;20924;-61
2023/01/05 13:21:37;;;;;;;1.83;1.73;;;18.10;42.70;;;;;;4984043;28;20825;-64
2023/01/05 13:24:07;;;;;;;1.60;1.50;;;18.10;42.70;;;;;;4984639;28;20416;-60
2023/01/05 13:26:33;;;;;;;1.40;1.30;;;18.10;42.80;;;;;;4984558;28;20487;-65
2023/01/05 13:28:59;;;;;;;1.60;1.50;;;18.10;42.80;;;;;;4982997;28;21005;-60
2023/01/05 13:31:30;;;;;;;1.33;1.23;;;18.10;42.70;;;;;;4984541;28;20323;-61
2023/01/05 13:34:06;;;;;;;2.20;2.00;;;18.10;42.70;;;;;;4985099;28;20927;-64
2023/01/05 13:37:02;;;;;;;1.47;1.30;;;18.10;42.70;;;;;;4984601;28;20455;-60
2023/01/05 13:39:55;;;;;;;1.30;1.20;;;18.10;42.60;;;;;;4982903;28;20465;-64
2023/01/05 13:42:33;;;;;;;1.40;1.30;;;18.10;42.70;;;;;;4972143;28;21172;-64